sensor_id;sensor_type;location;lat;lon;timestamp;P1;durP1;ratioP1;P2;durP2;ratioP2
18445;SDS011;9352;50.888;4.466;2024-02-23T00:00:13;2.15;;;0.90;;
18445;SDS011;9352;50.888;4.466;2024-02-23T00:02:43;3.53;;;1.00;;
18445;SDS011;9352;50.888;4.466;2024-02-23T00:05:09;2.60;;;1.15;;
18445;SDS011;9352;50.888;4.466;2024-02-23T00:07:37;2.55;;;1.23;;
18445;SDS011;9352;50.888;4.466;2024-02-23T00:10:05;1.05;;;1.02;;
18445;SDS011;9352;50.888;4.466;2024-02-23T00:12:33;3.33;;;1.45;;
18445;SDS011;9352;50.888;4.466;2024-02-23T00:15:00;3.30;;;1.30;;
18445;SDS011;9352;50.888;4.466;2024-02-23T00:17:27;7.88;;;1.38;;
18445;SDS011;9352;50.888;4.466;2024-02-23T00:19:54;3.00;;;1.20;;
18445;SDS011;9352;50.888;4.466;2024-02-23T00:22:20;4.57;;;1.15;;
18445;SDS011;9352;50.888;4.466;2024-02-23T00:24:47;5.90;;;1.20;;
18445;SDS011;9352;50.888;4.466;2024-02-23T00:27:16;6.10;;;1.33;;
18445;SDS011;9352;50.888;4.466;2024-02-23T00:29:42;5.88;;;1.02;;
18445;SDS011;9352;50.888;4.466;2024-02-23T00:32:10;1.90;;;0.98;;
18445;SDS011;9352;50.888;4.466;2024-02-23T00:34:37;1.52;;;0.80;;
18445;SDS011;9352;50.888;4.466;2024-02-23T00:37:04;8.43;;;0.95;;
18445;SDS011;9352;50.888;4.466;2024-02-23T00:39:33;5.10;;;1.25;;
18445;SDS011;9352;50.888;4.466;2024-02-23T00:41:59;1.52;;;0.95;;
18445;SDS011;9352;50.888;4.466;2024-02-23T00:44:28;5.13;;;1.10;;
18445;SDS011;9352;50.888;4.466;2024-02-23T00:46:55;6.18;;;1.00;;
18445;SDS011;9352;50.888;4.466;2024-02-23T00:49:22;5.13;;;1.05;;
18445;SDS011;9352;50.888;4.466;2024-02-23T00:51:49;3.13;;;0.88;;
18445;SDS011;9352;50.888;4.466;2024-02-23T00:54:16;3.50;;;1.10;;
18445;SDS011;9352;50.888;4.466;2024-02-23T00:56:43;5.63;;;0.90;;
18445;SDS011;9352;50.888;4.466;2024-02-23T00:59:11;3.42;;;0.93;;
18445;SDS011;9352;50.888;4.466;2024-02-23T01:01:39;3.67;;;1.00;;
18445;SDS011;9352;50.888;4.466;2024-02-23T01:04:06;3.63;;;1.25;;
18445;SDS011;9352;50.888;4.466;2024-02-23T01:06:33;1.90;;;0.80;;
18445;SDS011;9352;50.888;4.466;2024-02-23T01:09:00;1.50;;;1.00;;
18445;SDS011;9352;50.888;4.466;2024-02-23T01:11:29;2.97;;;1.05;;
18445;SDS011;9352;50.888;4.466;2024-02-23T01:13:56;2.80;;;1.00;;
18445;SDS011;9352;50.888;4.466;2024-02-23T01:16:23;3.38;;;1.30;;
18445;SDS011;9352;50.888;4.466;2024-02-23T01:18:51;4.80;;;0.90;;
18445;SDS011;9352;50.888;4.466;2024-02-23T01:21:18;3.55;;;1.30;;
18445;SDS011;9352;50.888;4.466;2024-02-23T01:23:45;3.03;;;1.10;;
18445;SDS011;9352;50.888;4.466;2024-02-23T01:26:12;4.25;;;1.05;;
18445;SDS011;9352;50.888;4.466;2024-02-23T01:28:39;2.45;;;1.08;;
18445;SDS011;9352;50.888;4.466;2024-02-23T01:31:08;1.55;;;0.98;;
18445;SDS011;9352;50.888;4.466;2024-02-23T01:33:36;6.95;;;0.90;;
18445;SDS011;9352;50.888;4.466;2024-02-23T01:36:05;4.95;;;1.10;;
18445;SDS011;9352;50.888;4.466;2024-02-23T01:38:33;5.80;;;0.98;;
18445;SDS011;9352;50.888;4.466;2024-02-23T01:41:00;3.00;;;0.90;;
18445;SDS011;9352;50.888;4.466;2024-02-23T01:43:27;4.75;;;1.00;;
18445;SDS011;9352;50.888;4.466;2024-02-23T01:45:54;3.08;;;1.08;;
18445;SDS011;9352;50.888;4.466;2024-02-23T01:48:21;5.88;;;1.08;;
18445;SDS011;9352;50.888;4.466;2024-02-23T01:50:48;1.38;;;0.90;;
18445;SDS011;9352;50.888;4.466;2024-02-23T01:53:16;7.35;;;2.03;;
18445;SDS011;9352;50.888;4.466;2024-02-23T01:55:45;1.77;;;1.10;;
18445;SDS011;9352;50.888;4.466;2024-02-23T01:58:13;2.47;;;1.10;;
18445;SDS011;9352;50.888;4.466;2024-02-23T02:00:41;3.28;;;1.17;;
18445;SDS011;9352;50.888;4.466;2024-02-23T02:03:08;1.30;;;0.90;;
18445;SDS011;9352;50.888;4.466;2024-02-23T02:05:35;3.72;;;1.10;;
18445;SDS011;9352;50.888;4.466;2024-02-23T02:08:02;8.10;;;1.45;;
18445;SDS011;9352;50.888;4.466;2024-02-23T02:10:31;6.22;;;1.40;;
18445;SDS011;9352;50.888;4.466;2024-02-23T02:13:01;4.38;;;1.40;;
18445;SDS011;9352;50.888;4.466;2024-02-23T02:15:29;6.47;;;1.40;;
18445;SDS011;9352;50.888;4.466;2024-02-23T02:17:56;10.13;;;1.40;;
18445;SDS011;9352;50.888;4.466;2024-02-23T02:20:23;6.60;;;1.38;;
18445;SDS011;9352;50.888;4.466;2024-02-23T02:22:51;11.48;;;1.65;;
18445;SDS011;9352;50.888;4.466;2024-02-23T02:25:18;4.00;;;1.42;;
18445;SDS011;9352;50.888;4.466;2024-02-23T02:27:46;10.20;;;1.60;;
18445;SDS011;9352;50.888;4.466;2024-02-23T02:30:13;5.75;;;1.50;;
18445;SDS011;9352;50.888;4.466;2024-02-23T02:32:40;6.70;;;2.00;;
18445;SDS011;9352;50.888;4.466;2024-02-23T02:35:09;6.55;;;1.60;;
18445;SDS011;9352;50.888;4.466;2024-02-23T02:37:36;5.63;;;1.48;;
18445;SDS011;9352;50.888;4.466;2024-02-23T02:40:04;10.57;;;1.50;;
18445;SDS011;9352;50.888;4.466;2024-02-23T02:42:32;7.60;;;1.83;;
18445;SDS011;9352;50.888;4.466;2024-02-23T02:45:00;3.50;;;1.50;;
18445;SDS011;9352;50.888;4.466;2024-02-23T02:47:28;9.20;;;1.88;;
18445;SDS011;9352;50.888;4.466;2024-02-23T02:49:54;10.52;;;2.20;;
18445;SDS011;9352;50.888;4.466;2024-02-23T02:52:21;12.68;;;2.20;;
18445;SDS011;9352;50.888;4.466;2024-02-23T02:54:49;9.52;;;2.58;;
18445;SDS011;9352;50.888;4.466;2024-02-23T02:57:16;4.22;;;1.80;;
18445;SDS011;9352;50.888;4.466;2024-02-23T02:59:43;8.20;;;1.88;;
18445;SDS011;9352;50.888;4.466;2024-02-23T03:02:12;8.40;;;2.10;;
18445;SDS011;9352;50.888;4.466;2024-02-23T03:04:39;10.85;;;2.35;;
18445;SDS011;9352;50.888;4.466;2024-02-23T03:07:12;9.43;;;2.45;;
18445;SDS011;9352;50.888;4.466;2024-02-23T03:09:39;4.43;;;1.80;;
18445;SDS011;9352;50.888;4.466;2024-02-23T03:12:06;6.35;;;1.63;;
18445;SDS011;9352;50.888;4.466;2024-02-23T03:14:33;8.18;;;2.00;;
18445;SDS011;9352;50.888;4.466;2024-02-23T03:17:02;8.52;;;2.08;;
18445;SDS011;9352;50.888;4.466;2024-02-23T03:19:31;5.72;;;1.70;;
18445;SDS011;9352;50.888;4.466;2024-02-23T03:21:58;6.05;;;2.00;;
18445;SDS011;9352;50.888;4.466;2024-02-23T03:24:25;8.82;;;2.20;;
18445;SDS011;9352;50.888;4.466;2024-02-23T03:26:52;5.85;;;1.80;;
18445;SDS011;9352;50.888;4.466;2024-02-23T03:29:19;6.55;;;2.03;;
18445;SDS011;9352;50.888;4.466;2024-02-23T03:31:47;8.48;;;2.40;;
18445;SDS011;9352;50.888;4.466;2024-02-23T03:34:14;3.53;;;1.85;;
18445;SDS011;9352;50.888;4.466;2024-02-23T03:36:42;9.52;;;2.17;;
18445;SDS011;9352;50.888;4.466;2024-02-23T03:39:09;5.68;;;2.00;;
18445;SDS011;9352;50.888;4.466;2024-02-23T03:41:36;3.63;;;1.80;;
18445;SDS011;9352;50.888;4.466;2024-02-23T03:44:03;7.03;;;2.45;;
18445;SDS011;9352;50.888;4.466;2024-02-23T03:46:30;8.18;;;1.92;;
18445;SDS011;9352;50.888;4.466;2024-02-23T03:48:57;3.60;;;1.80;;
18445;SDS011;9352;50.888;4.466;2024-02-23T03:51:24;6.82;;;2.10;;
18445;SDS011;9352;50.888;4.466;2024-02-23T03:53:52;6.18;;;1.83;;
18445;SDS011;9352;50.888;4.466;2024-02-23T03:56:19;5.05;;;1.98;;
18445;SDS011;9352;50.888;4.466;2024-02-23T03:58:46;6.38;;;1.88;;
18445;SDS011;9352;50.888;4.466;2024-02-23T04:01:13;5.95;;;2.15;;
18445;SDS011;9352;50.888;4.466;2024-02-23T04:03:40;8.38;;;2.00;;
18445;SDS011;9352;50.888;4.466;2024-02-23T04:06:06;9.40;;;2.08;;
18445;SDS011;9352;50.888;4.466;2024-02-23T04:08:33;2.90;;;1.70;;
18445;SDS011;9352;50.888;4.466;2024-02-23T04:11:03;11.10;;;2.40;;
18445;SDS011;9352;50.888;4.466;2024-02-23T04:13:30;6.10;;;1.70;;
18445;SDS011;9352;50.888;4.466;2024-02-23T04:15:57;5.10;;;1.70;;
18445;SDS011;9352;50.888;4.466;2024-02-23T04:18:25;8.25;;;2.17;;
18445;SDS011;9352;50.888;4.466;2024-02-23T04:20:52;10.15;;;2.17;;
18445;SDS011;9352;50.888;4.466;2024-02-23T04:23:19;8.43;;;2.13;;
18445;SDS011;9352;50.888;4.466;2024-02-23T04:25:46;9.48;;;2.08;;
18445;SDS011;9352;50.888;4.466;2024-02-23T04:28:14;7.50;;;1.80;;
18445;SDS011;9352;50.888;4.466;2024-02-23T04:30:41;7.07;;;2.42;;
18445;SDS011;9352;50.888;4.466;2024-02-23T04:33:08;7.85;;;2.00;;
18445;SDS011;9352;50.888;4.466;2024-02-23T04:35:35;10.20;;;2.50;;
18445;SDS011;9352;50.888;4.466;2024-02-23T04:38:01;9.90;;;2.00;;
18445;SDS011;9352;50.888;4.466;2024-02-23T04:40:28;8.27;;;1.90;;
18445;SDS011;9352;50.888;4.466;2024-02-23T04:42:55;9.00;;;2.17;;
18445;SDS011;9352;50.888;4.466;2024-02-23T04:45:23;10.13;;;2.08;;
18445;SDS011;9352;50.888;4.466;2024-02-23T04:47:50;7.63;;;1.95;;
18445;SDS011;9352;50.888;4.466;2024-02-23T04:50:17;18.95;;;2.50;;
18445;SDS011;9352;50.888;4.466;2024-02-23T04:52:44;11.23;;;1.90;;
18445;SDS011;9352;50.888;4.466;2024-02-23T04:55:11;7.10;;;1.98;;
18445;SDS011;9352;50.888;4.466;2024-02-23T04:57:38;11.25;;;2.25;;
18445;SDS011;9352;50.888;4.466;2024-02-23T05:00:05;10.77;;;2.20;;
18445;SDS011;9352;50.888;4.466;2024-02-23T05:02:35;12.95;;;2.17;;
18445;SDS011;9352;50.888;4.466;2024-02-23T05:05:01;14.20;;;2.30;;
18445;SDS011;9352;50.888;4.466;2024-02-23T05:07:29;9.00;;;2.03;;
18445;SDS011;9352;50.888;4.466;2024-02-23T05:09:56;5.57;;;1.65;;
18445;SDS011;9352;50.888;4.466;2024-02-23T05:12:23;4.47;;;1.58;;
18445;SDS011;9352;50.888;4.466;2024-02-23T05:14:51;13.35;;;2.10;;
18445;SDS011;9352;50.888;4.466;2024-02-23T05:17:18;10.43;;;1.80;;
18445;SDS011;9352;50.888;4.466;2024-02-23T05:19:46;10.98;;;2.28;;
18445;SDS011;9352;50.888;4.466;2024-02-23T05:22:13;12.57;;;1.80;;
18445;SDS011;9352;50.888;4.466;2024-02-23T05:24:40;4.13;;;1.60;;
18445;SDS011;9352;50.888;4.466;2024-02-23T05:27:06;5.70;;;1.53;;
18445;SDS011;9352;50.888;4.466;2024-02-23T05:29:33;6.57;;;1.65;;
18445;SDS011;9352;50.888;4.466;2024-02-23T05:32:00;8.48;;;1.60;;
18445;SDS011;9352;50.888;4.466;2024-02-23T05:34:28;6.78;;;1.42;;
18445;SDS011;9352;50.888;4.466;2024-02-23T05:36:56;4.15;;;1.70;;
18445;SDS011;9352;50.888;4.466;2024-02-23T05:39:23;12.70;;;2.47;;
18445;SDS011;9352;50.888;4.466;2024-02-23T05:41:50;8.18;;;1.67;;
18445;SDS011;9352;50.888;4.466;2024-02-23T05:44:17;6.85;;;1.83;;
18445;SDS011;9352;50.888;4.466;2024-02-23T05:46:44;9.07;;;1.80;;
18445;SDS011;9352;50.888;4.466;2024-02-23T05:49:11;13.60;;;1.63;;
18445;SDS011;9352;50.888;4.466;2024-02-23T05:51:38;13.60;;;1.80;;
18445;SDS011;9352;50.888;4.466;2024-02-23T05:54:06;8.25;;;1.90;;
18445;SDS011;9352;50.888;4.466;2024-02-23T05:56:34;8.80;;;1.83;;
18445;SDS011;9352;50.888;4.466;2024-02-23T05:59:02;5.65;;;1.50;;
18445;SDS011;9352;50.888;4.466;2024-02-23T06:01:29;7.13;;;1.67;;
18445;SDS011;9352;50.888;4.466;2024-02-23T06:03:56;10.93;;;1.70;;
18445;SDS011;9352;50.888;4.466;2024-02-23T06:06:23;8.82;;;1.90;;
18445;SDS011;9352;50.888;4.466;2024-02-23T06:08:50;9.77;;;2.00;;
18445;SDS011;9352;50.888;4.466;2024-02-23T06:11:18;9.32;;;1.77;;
18445;SDS011;9352;50.888;4.466;2024-02-23T06:13:45;5.63;;;2.05;;
18445;SDS011;9352;50.888;4.466;2024-02-23T06:16:12;10.40;;;1.88;;
18445;SDS011;9352;50.888;4.466;2024-02-23T06:18:39;14.98;;;2.15;;
18445;SDS011;9352;50.888;4.466;2024-02-23T06:21:13;8.30;;;1.75;;
18445;SDS011;9352;50.888;4.466;2024-02-23T06:23:40;7.88;;;2.05;;
18445;SDS011;9352;50.888;4.466;2024-02-23T06:26:07;10.38;;;2.42;;
18445;SDS011;9352;50.888;4.466;2024-02-23T06:28:35;12.82;;;1.85;;
18445;SDS011;9352;50.888;4.466;2024-02-23T06:31:03;8.07;;;1.85;;
18445;SDS011;9352;50.888;4.466;2024-02-23T06:33:31;9.32;;;1.80;;
18445;SDS011;9352;50.888;4.466;2024-02-23T06:35:58;10.40;;;1.90;;
18445;SDS011;9352;50.888;4.466;2024-02-23T06:38:25;9.02;;;1.60;;
18445;SDS011;9352;50.888;4.466;2024-02-23T06:40:53;8.30;;;1.70;;
18445;SDS011;9352;50.888;4.466;2024-02-23T06:43:21;11.70;;;1.40;;
18445;SDS011;9352;50.888;4.466;2024-02-23T06:45:50;6.93;;;1.33;;
18445;SDS011;9352;50.888;4.466;2024-02-23T06:48:17;10.07;;;2.00;;
18445;SDS011;9352;50.888;4.466;2024-02-23T06:50:44;10.73;;;1.90;;
18445;SDS011;9352;50.888;4.466;2024-02-23T06:53:11;6.05;;;1.35;;
18445;SDS011;9352;50.888;4.466;2024-02-23T06:55:38;8.68;;;1.70;;
18445;SDS011;9352;50.888;4.466;2024-02-23T06:58:06;12.50;;;1.52;;
18445;SDS011;9352;50.888;4.466;2024-02-23T07:00:35;14.18;;;3.10;;
18445;SDS011;9352;50.888;4.466;2024-02-23T07:03:04;11.40;;;1.77;;
18445;SDS011;9352;50.888;4.466;2024-02-23T07:05:31;9.98;;;1.90;;
18445;SDS011;9352;50.888;4.466;2024-02-23T07:07:58;5.07;;;1.80;;
18445;SDS011;9352;50.888;4.466;2024-02-23T07:10:25;7.50;;;2.03;;
18445;SDS011;9352;50.888;4.466;2024-02-23T07:12:52;6.60;;;1.67;;
18445;SDS011;9352;50.888;4.466;2024-02-23T07:15:20;5.65;;;1.75;;
18445;SDS011;9352;50.888;4.466;2024-02-23T07:17:48;8.13;;;2.00;;
18445;SDS011;9352;50.888;4.466;2024-02-23T07:20:16;11.68;;;1.65;;
18445;SDS011;9352;50.888;4.466;2024-02-23T07:22:43;11.23;;;2.10;;
18445;SDS011;9352;50.888;4.466;2024-02-23T07:25:11;7.68;;;1.73;;
18445;SDS011;9352;50.888;4.466;2024-02-23T07:27:38;7.43;;;1.83;;
18445;SDS011;9352;50.888;4.466;2024-02-23T07:30:05;11.68;;;2.10;;
18445;SDS011;9352;50.888;4.466;2024-02-23T07:32:33;7.85;;;1.60;;
18445;SDS011;9352;50.888;4.466;2024-02-23T07:35:00;9.60;;;1.80;;
18445;SDS011;9352;50.888;4.466;2024-02-23T07:37:30;12.35;;;1.80;;
18445;SDS011;9352;50.888;4.466;2024-02-23T07:39:57;10.35;;;1.90;;
18445;SDS011;9352;50.888;4.466;2024-02-23T07:42:24;7.45;;;1.95;;
18445;SDS011;9352;50.888;4.466;2024-02-23T07:44:51;10.68;;;1.98;;
18445;SDS011;9352;50.888;4.466;2024-02-23T07:47:18;10.85;;;2.70;;
18445;SDS011;9352;50.888;4.466;2024-02-23T07:49:45;9.20;;;2.33;;
18445;SDS011;9352;50.888;4.466;2024-02-23T07:52:11;8.45;;;1.73;;
18445;SDS011;9352;50.888;4.466;2024-02-23T07:54:40;10.23;;;1.85;;
18445;SDS011;9352;50.888;4.466;2024-02-23T07:57:07;6.65;;;1.63;;
18445;SDS011;9352;50.888;4.466;2024-02-23T07:59:34;12.60;;;2.42;;
18445;SDS011;9352;50.888;4.466;2024-02-23T08:02:00;5.35;;;1.60;;
18445;SDS011;9352;50.888;4.466;2024-02-23T08:04:27;10.00;;;1.88;;
18445;SDS011;9352;50.888;4.466;2024-02-23T08:06:54;11.32;;;1.90;;
18445;SDS011;9352;50.888;4.466;2024-02-23T08:09:21;6.82;;;1.60;;
18445;SDS011;9352;50.888;4.466;2024-02-23T08:11:50;13.82;;;1.83;;
18445;SDS011;9352;50.888;4.466;2024-02-23T08:14:17;9.85;;;1.98;;
18445;SDS011;9352;50.888;4.466;2024-02-23T08:16:44;5.65;;;1.40;;
18445;SDS011;9352;50.888;4.466;2024-02-23T08:19:11;4.22;;;1.40;;
18445;SDS011;9352;50.888;4.466;2024-02-23T08:21:38;10.00;;;1.60;;
18445;SDS011;9352;50.888;4.466;2024-02-23T08:24:06;10.10;;;1.65;;
18445;SDS011;9352;50.888;4.466;2024-02-23T08:26:33;6.10;;;1.60;;
18445;SDS011;9352;50.888;4.466;2024-02-23T08:29:04;10.57;;;1.65;;
18445;SDS011;9352;50.888;4.466;2024-02-23T08:31:31;10.10;;;1.73;;
18445;SDS011;9352;50.888;4.466;2024-02-23T08:33:58;6.75;;;1.50;;
18445;SDS011;9352;50.888;4.466;2024-02-23T08:36:25;7.60;;;1.80;;
18445;SDS011;9352;50.888;4.466;2024-02-23T08:38:52;6.88;;;1.67;;
18445;SDS011;9352;50.888;4.466;2024-02-23T08:41:19;5.38;;;1.40;;
18445;SDS011;9352;50.888;4.466;2024-02-23T08:43:46;5.40;;;1.27;;
18445;SDS011;9352;50.888;4.466;2024-02-23T08:46:14;8.93;;;1.75;;
18445;SDS011;9352;50.888;4.466;2024-02-23T08:48:41;6.57;;;1.45;;
18445;SDS011;9352;50.888;4.466;2024-02-23T08:51:08;15.38;;;1.70;;
18445;SDS011;9352;50.888;4.466;2024-02-23T08:53:35;6.32;;;1.60;;
18445;SDS011;9352;50.888;4.466;2024-02-23T08:56:01;9.75;;;1.95;;
18445;SDS011;9352;50.888;4.466;2024-02-23T08:58:29;9.95;;;2.00;;
18445;SDS011;9352;50.888;4.466;2024-02-23T09:00:56;5.45;;;1.58;;
18445;SDS011;9352;50.888;4.466;2024-02-23T09:03:24;3.50;;;1.60;;
18445;SDS011;9352;50.888;4.466;2024-02-23T09:05:51;7.45;;;2.10;;
18445;SDS011;9352;50.888;4.466;2024-02-23T09:08:18;4.22;;;1.58;;
18445;SDS011;9352;50.888;4.466;2024-02-23T09:10:45;4.43;;;1.60;;
18445;SDS011;9352;50.888;4.466;2024-02-23T09:13:12;8.98;;;2.00;;
18445;SDS011;9352;50.888;4.466;2024-02-23T09:15:40;8.32;;;1.85;;
18445;SDS011;9352;50.888;4.466;2024-02-23T09:18:08;5.32;;;1.83;;
18445;SDS011;9352;50.888;4.466;2024-02-23T09:20:36;7.40;;;2.10;;
18445;SDS011;9352;50.888;4.466;2024-02-23T09:23:03;5.45;;;1.60;;
18445;SDS011;9352;50.888;4.466;2024-02-23T09:25:30;7.72;;;1.92;;
18445;SDS011;9352;50.888;4.466;2024-02-23T09:27:57;5.43;;;1.95;;
18445;SDS011;9352;50.888;4.466;2024-02-23T09:30:25;7.82;;;1.90;;
18445;SDS011;9352;50.888;4.466;2024-02-23T09:32:52;7.03;;;1.80;;
18445;SDS011;9352;50.888;4.466;2024-02-23T09:35:19;14.73;;;2.13;;
18445;SDS011;9352;50.888;4.466;2024-02-23T09:37:48;11.38;;;1.88;;
18445;SDS011;9352;50.888;4.466;2024-02-23T09:40:15;19.15;;;2.35;;
18445;SDS011;9352;50.888;4.466;2024-02-23T09:42:42;7.35;;;1.70;;
18445;SDS011;9352;50.888;4.466;2024-02-23T09:45:13;7.53;;;1.65;;
18445;SDS011;9352;50.888;4.466;2024-02-23T09:47:40;8.25;;;1.83;;
18445;SDS011;9352;50.888;4.466;2024-02-23T09:50:09;16.55;;;2.25;;
18445;SDS011;9352;50.888;4.466;2024-02-23T09:52:38;6.72;;;2.08;;
18445;SDS011;9352;50.888;4.466;2024-02-23T09:55:06;8.60;;;1.50;;
18445;SDS011;9352;50.888;4.466;2024-02-23T09:57:33;8.85;;;1.90;;
18445;SDS011;9352;50.888;4.466;2024-02-23T10:00:01;7.57;;;1.70;;
18445;SDS011;9352;50.888;4.466;2024-02-23T10:02:31;6.07;;;1.65;;
18445;SDS011;9352;50.888;4.466;2024-02-23T10:05:02;7.43;;;1.70;;
18445;SDS011;9352;50.888;4.466;2024-02-23T10:07:29;8.00;;;1.98;;
18445;SDS011;9352;50.888;4.466;2024-02-23T10:09:56;9.13;;;2.10;;
18445;SDS011;9352;50.888;4.466;2024-02-23T10:12:25;8.50;;;2.42;;
18445;SDS011;9352;50.888;4.466;2024-02-23T10:14:53;11.95;;;2.60;;
18445;SDS011;9352;50.888;4.466;2024-02-23T10:17:20;6.85;;;2.40;;
18445;SDS011;9352;50.888;4.466;2024-02-23T10:19:47;6.60;;;2.03;;
18445;SDS011;9352;50.888;4.466;2024-02-23T10:22:14;13.48;;;2.08;;
18445;SDS011;9352;50.888;4.466;2024-02-23T10:24:42;5.40;;;2.00;;
18445;SDS011;9352;50.888;4.466;2024-02-23T10:27:09;4.78;;;1.80;;
18445;SDS011;9352;50.888;4.466;2024-02-23T10:29:37;8.30;;;1.70;;
18445;SDS011;9352;50.888;4.466;2024-02-23T10:32:04;5.80;;;1.77;;
18445;SDS011;9352;50.888;4.466;2024-02-23T10:34:33;5.28;;;1.70;;
18445;SDS011;9352;50.888;4.466;2024-02-23T10:37:03;7.82;;;1.98;;
18445;SDS011;9352;50.888;4.466;2024-02-23T10:39:32;5.28;;;1.75;;
18445;SDS011;9352;50.888;4.466;2024-02-23T10:42:04;7.13;;;2.10;;
18445;SDS011;9352;50.888;4.466;2024-02-23T10:44:34;5.93;;;1.73;;
18445;SDS011;9352;50.888;4.466;2024-02-23T10:47:04;10.25;;;2.35;;
18445;SDS011;9352;50.888;4.466;2024-02-23T10:49:31;6.22;;;1.67;;
18445;SDS011;9352;50.888;4.466;2024-02-23T10:51:59;8.50;;;2.10;;
18445;SDS011;9352;50.888;4.466;2024-02-23T10:54:28;6.13;;;2.00;;
18445;SDS011;9352;50.888;4.466;2024-02-23T10:56:57;7.32;;;2.53;;
18445;SDS011;9352;50.888;4.466;2024-02-23T10:59:27;10.15;;;2.25;;
18445;SDS011;9352;50.888;4.466;2024-02-23T11:01:55;9.73;;;1.92;;
18445;SDS011;9352;50.888;4.466;2024-02-23T11:04:24;8.30;;;2.17;;
18445;SDS011;9352;50.888;4.466;2024-02-23T11:06:53;6.78;;;1.60;;
18445;SDS011;9352;50.888;4.466;2024-02-23T11:09:23;4.78;;;1.73;;
18445;SDS011;9352;50.888;4.466;2024-02-23T11:11:54;11.18;;;2.33;;
18445;SDS011;9352;50.888;4.466;2024-02-23T11:14:31;5.45;;;2.30;;
18445;SDS011;9352;50.888;4.466;2024-02-23T11:17:00;6.63;;;2.00;;
18445;SDS011;9352;50.888;4.466;2024-02-23T11:19:34;7.55;;;1.90;;
18445;SDS011;9352;50.888;4.466;2024-02-23T11:22:02;6.35;;;1.70;;
18445;SDS011;9352;50.888;4.466;2024-02-23T11:24:29;6.40;;;1.98;;
18445;SDS011;9352;50.888;4.466;2024-02-23T11:26:57;5.05;;;1.85;;
18445;SDS011;9352;50.888;4.466;2024-02-23T11:29:26;6.88;;;1.90;;
18445;SDS011;9352;50.888;4.466;2024-02-23T11:31:53;8.45;;;1.85;;
18445;SDS011;9352;50.888;4.466;2024-02-23T11:34:27;7.28;;;2.17;;
18445;SDS011;9352;50.888;4.466;2024-02-23T11:36:54;5.82;;;1.90;;
18445;SDS011;9352;50.888;4.466;2024-02-23T11:39:23;11.50;;;2.13;;
18445;SDS011;9352;50.888;4.466;2024-02-23T11:41:52;6.63;;;2.25;;
18445;SDS011;9352;50.888;4.466;2024-02-23T11:44:19;7.63;;;2.10;;
18445;SDS011;9352;50.888;4.466;2024-02-23T11:46:46;6.32;;;1.90;;
18445;SDS011;9352;50.888;4.466;2024-02-23T11:49:13;12.38;;;2.47;;
18445;SDS011;9352;50.888;4.466;2024-02-23T11:51:42;5.15;;;2.22;;
18445;SDS011;9352;50.888;4.466;2024-02-23T11:54:09;20.45;;;2.13;;
18445;SDS011;9352;50.888;4.466;2024-02-23T11:56:36;4.50;;;2.03;;
18445;SDS011;9352;50.888;4.466;2024-02-23T11:59:03;5.35;;;1.80;;
18445;SDS011;9352;50.888;4.466;2024-02-23T12:01:31;6.53;;;1.95;;
18445;SDS011;9352;50.888;4.466;2024-02-23T12:03:58;3.08;;;2.00;;
18445;SDS011;9352;50.888;4.466;2024-02-23T12:06:25;6.45;;;2.30;;
18445;SDS011;9352;50.888;4.466;2024-02-23T12:08:57;5.60;;;2.00;;
18445;SDS011;9352;50.888;4.466;2024-02-23T12:11:24;7.93;;;2.65;;
18445;SDS011;9352;50.888;4.466;2024-02-23T12:13:51;3.83;;;2.10;;
18445;SDS011;9352;50.888;4.466;2024-02-23T12:16:18;5.25;;;2.20;;
18445;SDS011;9352;50.888;4.466;2024-02-23T12:18:46;6.47;;;2.35;;
18445;SDS011;9352;50.888;4.466;2024-02-23T12:21:20;7.25;;;2.00;;
18445;SDS011;9352;50.888;4.466;2024-02-23T12:23:48;5.07;;;2.05;;
18445;SDS011;9352;50.888;4.466;2024-02-23T12:26:17;5.57;;;2.25;;
18445;SDS011;9352;50.888;4.466;2024-02-23T12:28:44;7.03;;;1.90;;
18445;SDS011;9352;50.888;4.466;2024-02-23T12:31:12;6.03;;;2.30;;
18445;SDS011;9352;50.888;4.466;2024-02-23T12:33:39;7.78;;;2.10;;
18445;SDS011;9352;50.888;4.466;2024-02-23T12:36:07;4.75;;;2.30;;
18445;SDS011;9352;50.888;4.466;2024-02-23T12:38:35;3.53;;;2.30;;
18445;SDS011;9352;50.888;4.466;2024-02-23T12:41:02;4.78;;;2.53;;
18445;SDS011;9352;50.888;4.466;2024-02-23T12:43:31;7.25;;;2.17;;
18445;SDS011;9352;50.888;4.466;2024-02-23T12:45:59;8.52;;;2.38;;
18445;SDS011;9352;50.888;4.466;2024-02-23T12:48:28;5.20;;;1.98;;
18445;SDS011;9352;50.888;4.466;2024-02-23T12:50:55;6.57;;;2.20;;
18445;SDS011;9352;50.888;4.466;2024-02-23T12:53:31;2.38;;;1.50;;
18445;SDS011;9352;50.888;4.466;2024-02-23T12:56:01;3.70;;;1.70;;
18445;SDS011;9352;50.888;4.466;2024-02-23T12:58:28;6.32;;;1.98;;
18445;SDS011;9352;50.888;4.466;2024-02-23T13:00:57;3.25;;;1.95;;
18445;SDS011;9352;50.888;4.466;2024-02-23T13:03:24;5.55;;;1.75;;
18445;SDS011;9352;50.888;4.466;2024-02-23T13:05:52;4.25;;;2.15;;
18445;SDS011;9352;50.888;4.466;2024-02-23T13:08:19;3.10;;;1.60;;
18445;SDS011;9352;50.888;4.466;2024-02-23T13:10:46;6.25;;;1.60;;
18445;SDS011;9352;50.888;4.466;2024-02-23T13:13:13;7.45;;;1.40;;
18445;SDS011;9352;50.888;4.466;2024-02-23T13:15:40;5.47;;;1.80;;
18445;SDS011;9352;50.888;4.466;2024-02-23T13:18:09;9.75;;;1.73;;
18445;SDS011;9352;50.888;4.466;2024-02-23T13:20:36;6.10;;;1.83;;
18445;SDS011;9352;50.888;4.466;2024-02-23T13:23:03;5.78;;;1.65;;
18445;SDS011;9352;50.888;4.466;2024-02-23T13:25:32;3.15;;;1.63;;
18445;SDS011;9352;50.888;4.466;2024-02-23T13:27:59;6.60;;;1.52;;
18445;SDS011;9352;50.888;4.466;2024-02-23T13:30:26;5.95;;;1.60;;
18445;SDS011;9352;50.888;4.466;2024-02-23T13:32:53;4.05;;;1.50;;
18445;SDS011;9352;50.888;4.466;2024-02-23T13:35:21;3.13;;;1.35;;
18445;SDS011;9352;50.888;4.466;2024-02-23T13:37:48;4.20;;;1.52;;
18445;SDS011;9352;50.888;4.466;2024-02-23T13:40:15;5.13;;;1.83;;
18445;SDS011;9352;50.888;4.466;2024-02-23T13:42:42;6.28;;;1.98;;
18445;SDS011;9352;50.888;4.466;2024-02-23T13:45:11;3.90;;;1.83;;
18445;SDS011;9352;50.888;4.466;2024-02-23T13:47:39;3.40;;;1.40;;
18445;SDS011;9352;50.888;4.466;2024-02-23T13:50:07;6.55;;;1.55;;
18445;SDS011;9352;50.888;4.466;2024-02-23T13:52:36;8.90;;;1.50;;
18445;SDS011;9352;50.888;4.466;2024-02-23T13:55:03;5.22;;;1.55;;
18445;SDS011;9352;50.888;4.466;2024-02-23T13:57:31;7.43;;;1.60;;
18445;SDS011;9352;50.888;4.466;2024-02-23T13:59:59;11.23;;;1.77;;
18445;SDS011;9352;50.888;4.466;2024-02-23T14:02:26;9.73;;;1.48;;
18445;SDS011;9352;50.888;4.466;2024-02-23T14:04:59;11.48;;;1.85;;
18445;SDS011;9352;50.888;4.466;2024-02-23T14:07:28;5.18;;;1.52;;
18445;SDS011;9352;50.888;4.466;2024-02-23T14:09:57;5.40;;;1.60;;
18445;SDS011;9352;50.888;4.466;2024-02-23T14:12:23;5.35;;;1.23;;
18445;SDS011;9352;50.888;4.466;2024-02-23T14:14:51;7.72;;;1.70;;
18445;SDS011;9352;50.888;4.466;2024-02-23T14:17:18;10.18;;;2.00;;
18445;SDS011;9352;50.888;4.466;2024-02-23T14:19:45;12.25;;;1.88;;
18445;SDS011;9352;50.888;4.466;2024-02-23T14:22:11;3.65;;;1.25;;
18445;SDS011;9352;50.888;4.466;2024-02-23T14:24:38;9.35;;;2.05;;
18445;SDS011;9352;50.888;4.466;2024-02-23T14:27:07;6.47;;;1.83;;
18445;SDS011;9352;50.888;4.466;2024-02-23T14:29:34;12.77;;;1.90;;
18445;SDS011;9352;50.888;4.466;2024-02-23T14:32:01;5.20;;;1.55;;
18445;SDS011;9352;50.888;4.466;2024-02-23T14:34:29;7.43;;;1.40;;
18445;SDS011;9352;50.888;4.466;2024-02-23T14:36:58;5.18;;;1.52;;
18445;SDS011;9352;50.888;4.466;2024-02-23T14:39:25;6.63;;;1.40;;
18445;SDS011;9352;50.888;4.466;2024-02-23T14:41:52;9.52;;;1.58;;
18445;SDS011;9352;50.888;4.466;2024-02-23T14:44:20;3.92;;;1.25;;
18445;SDS011;9352;50.888;4.466;2024-02-23T14:46:47;7.13;;;1.88;;
18445;SDS011;9352;50.888;4.466;2024-02-23T14:49:14;3.20;;;1.80;;
18445;SDS011;9352;50.888;4.466;2024-02-23T14:51:41;2.95;;;1.00;;
18445;SDS011;9352;50.888;4.466;2024-02-23T14:54:10;2.80;;;1.30;;
18445;SDS011;9352;50.888;4.466;2024-02-23T14:56:38;9.93;;;1.30;;
18445;SDS011;9352;50.888;4.466;2024-02-23T14:59:06;2.72;;;1.20;;